Time;durP1;ratioP1;P1;durP2;ratioP2;P2;SDS_P1;SDS_P2;PMS_P1;PMS_P2;Temp;Humidity;BMP_temperature;BMP_pressure;BME280_temperature;BME280_humidity;BME280_pressure;Samples;Min_cycle;Max_cycle;Signal;HPM_P1;HPM_P2
2024/02/19 06:01:05;;;;;;;6.03;3.70;;;;;;;;;;5710602;22;20492;-76
2024/02/19 06:03:32;;;;;;;5.30;3.57;;;;;;;;;;5046880;28;20421;-76
2024/02/19 06:05:58;;;;;;;11.30;4.63;;;;;;;;;;5031472;28;20419;-76
2024/02/19 06:08:24;;;;;;;4.67;3.10;;;;;;;;;;5031294;28;20816;-76
2024/02/19 06:10:50;;;;;;;11.33;3.30;;;;;;;;;;5031369;28;21006;-76
2024/02/19 06:13:16;;;;;;;10.03;3.30;;;;;;;;;;5031935;28;20408;-74
2024/02/19 06:15:42;;;;;;;8.43;3.67;;;;;;;;;;5031374;28;20779;-75
2024/02/19 06:18:09;;;;;;;10.60;3.47;;;;;;;;;;5032337;28;20846;-75
2024/02/19 06:20:35;;;;;;;6.30;3.17;;;;;;;;;;5032239;28;20456;-75
2024/02/19 06:23:01;;;;;;;7.20;3.27;;;;;;;;;;5035817;28;20416;-75
2024/02/19 06:25:27;;;;;;;6.20;2.80;;;;;;;;;;5035381;28;20420;-74
2024/02/19 06:27:53;;;;;;;5.77;2.67;;;;;;;;;;5035174;28;20558;-74
2024/02/19 06:30:19;;;;;;;15.60;3.50;;;;;;;;;;5033847;28;20424;-74
2024/02/19 06:32:45;;;;;;;4.37;2.53;;;;;;;;;;5017515;28;20425;-74
2024/02/19 06:35:10;;;;;;;9.30;3.23;;;;;;;;;;5016682;28;20410;-78
2024/02/19 06:37:36;;;;;;;7.47;2.97;;;;;;;;;;5015238;28;20457;-74
2024/02/19 06:40:02;;;;;;;8.40;3.10;;;;;;;;;;5014441;28;20425;-76
2024/02/19 06:42:28;;;;;;;7.30;3.07;;;;;;;;;;5014153;28;20440;-74
2024/02/19 06:44:54;;;;;;;3.60;2.90;;;;;;;;;;5014343;28;20414;-76
2024/02/19 06:47:20;;;;;;;9.60;3.67;;;;;;;;;;5018215;28;20568;-78
2024/02/19 06:49:46;;;;;;;3.47;3.10;;;;;;;;;;5018299;28;20422;-79
2024/02/19 06:52:12;;;;;;;5.60;3.60;;;;;;;;;;5014805;28;20441;-77
2024/02/19 06:54:38;;;;;;;11.30;3.53;;;;;;;;;;5023235;28;21011;-78
2024/02/19 06:57:04;;;;;;;7.03;3.13;;;;;;;;;;5020608;28;20443;-76
2024/02/19 06:59:30;;;;;;;6.17;3.80;;;;;;;;;;5029661;28;20436;-77
2024/02/19 07:01:57;;;;;;;10.10;3.60;;;;;;;;;;5033071;28;20480;-78
2024/02/19 07:04:23;;;;;;;11.10;3.70;;;;;;;;;;5031175;28;20508;-77
2024/02/19 07:06:48;;;;;;;4.37;3.03;;;;;;;;;;5029054;28;20959;-78
2024/02/19 07:09:14;;;;;;;6.30;3.30;;;;;;;;;;5016209;28;20437;-77
2024/02/19 07:11:40;;;;;;;5.83;3.97;;;;;;;;;;5019356;28;20865;-78
2024/02/19 07:14:06;;;;;;;9.50;3.73;;;;;;;;;;5035309;28;20428;-80
2024/02/19 07:16:32;;;;;;;5.83;3.30;;;;;;;;;;5028239;28;20429;-78
2024/02/19 07:18:59;;;;;;;9.40;3.10;;;;;;;;;;5020549;28;20426;-74
2024/02/19 07:21:25;;;;;;;4.70;3.63;;;;;;;;;;5013429;28;20529;-74
2024/02/19 07:23:50;;;;;;;8.23;3.20;;;;;;;;;;5018271;28;20509;-76
2024/02/19 07:26:16;;;;;;;8.40;3.23;;;;;;;;;;5015704;28;20925;-77
2024/02/19 07:28:42;;;;;;;7.27;3.37;;;;;;;;;;5014774;28;20488;-74
2024/02/19 07:31:08;;;;;;;15.10;3.90;;;;;;;;;;5019484;28;20519;-76
2024/02/19 07:33:34;;;;;;;6.70;2.87;;;;;;;;;;5028143;28;20527;-77
2024/02/19 07:36:01;;;;;;;5.47;2.70;;;;;;;;;;5026576;28;20413;-79
2024/02/19 07:38:27;;;;;;;6.30;2.40;;;;;;;;;;5034917;28;20261;-79
2024/02/19 07:40:53;;;;;;;6.70;3.10;;;;;;;;;;5025449;28;20485;-79
2024/02/19 07:43:19;;;;;;;8.30;2.93;;;;;;;;;;5017344;28;20428;-79
2024/02/19 07:45:45;;;;;;;5.40;2.73;;;;;;;;;;5021733;28;20470;-79
2024/02/19 07:48:11;;;;;;;5.73;2.50;;;;;;;;;;5033682;28;20463;-79
2024/02/19 07:50:37;;;;;;;8.57;2.20;;;;;;;;;;5018796;28;20433;-79
2024/02/19 07:53:03;;;;;;;5.47;2.93;;;;;;;;;;5037075;28;20418;-79
2024/02/19 07:55:31;;;;;;;3.03;1.93;;;;;;;;;;5027758;28;20473;-80
2024/02/19 07:57:58;;;;;;;8.83;2.87;;;;;;;;;;5018522;28;20422;-79
2024/02/19 08:00:24;;;;;;;6.13;1.90;;;;;;;;;;5035190;28;20416;-79
2024/02/19 08:02:50;;;;;;;3.60;2.30;;;;;;;;;;5029602;28;20941;-78
2024/02/19 08:05:16;;;;;;;9.70;3.10;;;;;;;;;;5029399;28;20413;-78
2024/02/19 08:07:42;;;;;;;3.43;2.00;;;;;;;;;;5036326;28;20460;-79
2024/02/19 08:10:08;;;;;;;7.43;3.40;;;;;;;;;;5039234;28;20497;-80
2024/02/19 08:12:34;;;;;;;5.40;2.20;;;;;;;;;;5038058;28;20930;-79
2024/02/19 08:15:01;;;;;;;4.33;2.03;;;;;;;;;;5037499;28;20416;-78
2024/02/19 08:17:26;;;;;;;2.67;2.10;;;;;;;;;;5024911;28;20931;-73
2024/02/19 08:19:52;;;;;;;3.70;2.10;;;;;;;;;;5033310;28;20449;-73
2024/02/19 08:22:18;;;;;;;9.27;2.50;;;;;;;;;;5034990;28;20434;-74
2024/02/19 08:24:44;;;;;;;4.63;1.80;;;;;;;;;;5033188;28;20457;-73
2024/02/19 08:27:10;;;;;;;3.60;1.97;;;;;;;;;;5033209;28;20433;-73
2024/02/19 08:29:36;;;;;;;4.40;1.83;;;;;;;;;;5031283;28;20448;-74
2024/02/19 08:32:03;;;;;;;3.77;1.87;;;;;;;;;;5016323;28;20441;-75
2024/02/19 08:34:29;;;;;;;1.47;1.47;;;;;;;;;;5030810;28;20453;-75
2024/02/19 08:36:55;;;;;;;4.20;1.90;;;;;;;;;;5015835;28;20844;-75
2024/02/19 08:39:21;;;;;;;6.93;2.20;;;;;;;;;;5028547;28;20791;-78
2024/02/19 08:41:47;;;;;;;1.40;1.30;;;;;;;;;;5026806;28;20438;-79
2024/02/19 08:44:13;;;;;;;1.60;1.27;;;;;;;;;;5020580;28;20414;-80
2024/02/19 08:46:39;;;;;;;15.87;2.03;;;;;;;;;;5024984;28;20817;-81
2024/02/19 08:49:08;;;;;;;8.73;1.93;;;;;;;;;;5030738;28;20459;-80
2024/02/19 08:51:34;;;;;;;6.10;2.20;;;;;;;;;;5026811;28;20453;-79
2024/02/19 08:54:00;;;;;;;4.33;1.33;;;;;;;;;;5034416;28;20427;-80
2024/02/19 08:56:26;;;;;;;6.37;1.70;;;;;;;;;;5034537;28;20416;-80
2024/02/19 08:58:52;;;;;;;2.20;1.77;;;;;;;;;;5035496;28;20880;-79
2024/02/19 09:01:18;;;;;;;3.53;2.27;;;;;;;;;;5019046;28;20472;-78
2024/02/19 09:03:44;;;;;;;3.07;1.70;;;;;;;;;;5018305;28;20453;-79
2024/02/19 09:06:11;;;;;;;3.77;1.40;;;;;;;;;;5032700;28;20452;-78
2024/02/19 09:08:37;;;;;;;3.53;1.90;;;;;;;;;;5034062;28;20484;-78
2024/02/19 09:11:03;;;;;;;2.20;1.50;;;;;;;;;;5032236;28;20499;-76
2024/02/19 09:13:29;;;;;;;4.20;1.60;;;;;;;;;;5032842;28;20412;-77
2024/02/19 09:15:55;;;;;;;3.23;1.70;;;;;;;;;;5033957;28;20436;-78
2024/02/19 09:18:21;;;;;;;4.03;1.40;;;;;;;;;;5020704;28;20429;-79
2024/02/19 09:20:47;;;;;;;5.43;1.80;;;;;;;;;;5027472;28;20445;-79
2024/02/19 09:23:14;;;;;;;2.63;1.50;;;;;;;;;;5025128;28;20793;-79
2024/02/19 09:25:40;;;;;;;6.50;1.90;;;;;;;;;;5022647;28;20426;-78
2024/02/19 09:28:08;;;;;;;6.83;1.60;;;;;;;;;;5022889;28;20827;-78
2024/02/19 09:30:34;;;;;;;2.60;1.70;;;;;;;;;;5021500;28;20438;-78
2024/02/19 09:33:00;;;;;;;2.97;1.40;;;;;;;;;;5015672;28;20417;-79
2024/02/19 09:35:25;;;;;;;4.07;1.80;;;;;;;;;;5022648;28;20424;-79
2024/02/19 09:37:52;;;;;;;4.93;1.80;;;;;;;;;;5038686;28;20416;-80
2024/02/19 09:40:21;;;;;;;10.50;2.47;;;;;;;;;;5041764;28;20421;-79
2024/02/19 09:42:47;;;;;;;5.60;1.77;;;;;;;;;;5027855;28;20877;-78
2024/02/19 09:45:14;;;;;;;5.90;1.40;;;;;;;;;;5014967;28;20421;-78
2024/02/19 09:47:44;;;;;;;2.80;1.33;;;;;;;;;;5014767;28;20485;-78
2024/02/19 09:50:10;;;;;;;4.77;2.10;;;;;;;;;;5022213;28;20421;-79
2024/02/19 09:52:36;;;;;;;3.53;1.70;;;;;;;;;;5025729;28;20414;-78
2024/02/19 09:55:02;;;;;;;11.90;2.23;;;;;;;;;;5025214;28;20437;-77
2024/02/19 09:57:28;;;;;;;4.80;1.57;;;;;;;;;;5031025;28;20426;-78
2024/02/19 09:59:57;;;;;;;3.93;1.70;;;;;;;;;;5035965;28;20417;-80
2024/02/19 10:02:23;;;;;;;4.20;1.90;;;;;;;;;;5044265;28;20436;-80
2024/02/19 10:04:49;;;;;;;3.80;1.50;;;;;;;;;;5041242;28;20429;-80
2024/02/19 10:07:18;;;;;;;6.93;1.60;;;;;;;;;;5040692;28;20463;-79
2024/02/19 10:09:44;;;;;;;4.40;1.83;;;;;;;;;;5028909;28;20418;-80
2024/02/19 10:12:10;;;;;;;2.50;1.67;;;;;;;;;;5028558;28;20440;-79
2024/02/19 10:14:36;;;;;;;3.90;1.73;;;;;;;;;;5032501;28;20485;-79
2024/02/19 10:17:05;;;;;;;4.83;1.73;;;;;;;;;;5032963;28;20444;-78
2024/02/19 10:19:31;;;;;;;3.90;1.93;;;;;;;;;;5037458;28;20477;-79
2024/02/19 10:21:57;;;;;;;5.53;2.20;;;;;;;;;;5029450;28;20429;-78
2024/02/19 10:24:23;;;;;;;5.87;1.50;;;;;;;;;;5036023;28;20433;-78
2024/02/19 10:26:49;;;;;;;8.67;1.90;;;;;;;;;;5025895;28;20517;-79
2024/02/19 10:29:17;;;;;;;6.60;2.03;;;;;;;;;;5022786;28;20547;-78
2024/02/19 10:31:43;;;;;;;6.10;1.63;;;;;;;;;;5035069;28;20803;-80
2024/02/19 10:34:10;;;;;;;5.13;2.20;;;;;;;;;;5023504;28;20428;-80
2024/02/19 10:36:36;;;;;;;4.37;1.70;;;;;;;;;;5044523;28;20412;-79
2024/02/19 10:39:04;;;;;;;5.17;2.17;;;;;;;;;;5032250;28;20456;-78
2024/02/19 10:41:30;;;;;;;8.13;1.97;;;;;;;;;;5040477;28;20437;-80
2024/02/19 10:43:56;;;;;;;2.80;2.00;;;;;;;;;;5036232;28;20459;-79
2024/02/19 10:46:23;;;;;;;7.83;2.00;;;;;;;;;;5023503;28;20952;-79
2024/02/19 10:48:53;;;;;;;5.50;1.70;;;;;;;;;;5025123;28;20508;-78
2024/02/19 10:51:20;;;;;;;3.63;1.77;;;;;;;;;;5016489;28;20461;-80
2024/02/19 10:53:46;;;;;;;7.90;2.77;;;;;;;;;;5023120;28;20418;-80
2024/02/19 10:56:17;;;;;;;2.33;1.70;;;;;;;;;;5020501;28;20414;-80
2024/02/19 10:58:56;;;;;;;7.93;3.00;;;;;;;;;;5019569;28;20419;-79
2024/02/19 11:01:36;;;;;;;7.60;2.23;;;;;;;;;;5030681;28;20460;-79
2024/02/19 11:04:12;;;;;;;4.27;1.70;;;;;;;;;;5021409;28;20425;-79
2024/02/19 11:06:56;;;;;;;9.57;2.20;;;;;;;;;;5021229;28;20425;-79
2024/02/19 11:09:23;;;;;;;8.30;1.87;;;;;;;;;;5026438;28;20434;-80
2024/02/19 11:11:59;;;;;;;6.97;1.87;;;;;;;;;;5040047;28;20432;-79
2024/02/19 11:14:26;;;;;;;5.30;1.97;;;;;;;;;;5040281;28;20754;-79
2024/02/19 11:16:59;;;;;;;3.67;1.80;;;;;;;;;;5024965;28;20472;-79
2024/02/19 11:19:25;;;;;;;7.17;2.13;;;;;;;;;;5032020;28;20419;-77
2024/02/19 11:22:01;;;;;;;4.93;2.17;;;;;;;;;;5035174;28;20986;-77
2024/02/19 11:24:29;;;;;;;2.63;1.80;;;;;;;;;;5035509;28;20416;-77
2024/02/19 11:26:55;;;;;;;5.20;2.10;;;;;;;;;;5020891;28;20959;-73
2024/02/19 11:29:21;;;;;;;2.70;1.63;;;;;;;;;;5031057;28;20555;-74
2024/02/19 11:31:47;;;;;;;4.43;1.90;;;;;;;;;;5032555;28;20528;-74
2024/02/19 11:34:20;;;;;;;7.63;2.10;;;;;;;;;;5030543;28;20409;-74
2024/02/19 11:36:46;;;;;;;6.93;2.17;;;;;;;;;;5031834;28;20927;-74
2024/02/19 11:39:13;;;;;;;7.40;2.33;;;;;;;;;;5033326;28;20414;-74
2024/02/19 11:41:42;;;;;;;10.20;2.40;;;;;;;;;;5033179;28;20433;-77
2024/02/19 11:44:12;;;;;;;6.93;2.60;;;;;;;;;;5033819;28;20440;-77
2024/02/19 11:46:38;;;;;;;5.33;1.90;;;;;;;;;;5020674;28;20421;-76
2024/02/19 11:49:04;;;;;;;7.37;2.63;;;;;;;;;;5015337;28;20462;-77
2024/02/19 11:51:31;;;;;;;5.93;2.00;;;;;;;;;;5016628;28;20430;-77
2024/02/19 11:53:57;;;;;;;12.00;2.30;;;;;;;;;;5017696;28;20414;-78
2024/02/19 11:56:23;;;;;;;6.23;1.87;;;;;;;;;;5039160;28;20413;-79
2024/02/19 11:58:52;;;;;;;7.50;2.00;;;;;;;;;;5042074;28;20413;-79
2024/02/19 12:01:20;;;;;;;3.67;1.50;;;;;;;;;;5039784;28;20547;-79
2024/02/19 12:03:46;;;;;;;2.10;1.40;;;;;;;;;;5041727;28;20440;-79
2024/02/19 12:06:12;;;;;;;5.30;1.67;;;;;;;;;;5041734;28;20748;-79
2024/02/19 12:08:42;;;;;;;6.47;1.50;;;;;;;;;;5039618;28;20453;-79
2024/02/19 12:11:09;;;;;;;5.73;1.60;;;;;;;;;;5038435;28;20936;-79
2024/02/19 12:13:37;;;;;;;7.93;1.93;;;;;;;;;;5038969;28;20441;-82
2024/02/19 12:16:04;;;;;;;4.03;1.90;;;;;;;;;;5036690;28;20917;-79
2024/02/19 12:18:31;;;;;;;3.43;1.60;;;;;;;;;;5041491;28;20413;-83
2024/02/19 12:20:57;;;;;;;2.77;1.80;;;;;;;;;;5035239;28;20971;-83
2024/02/19 12:23:23;;;;;;;4.63;1.23;;;;;;;;;;5036768;28;20417;-82
2024/02/19 12:25:49;;;;;;;4.97;1.50;;;;;;;;;;5038468;28;20413;-82
2024/02/19 12:28:15;;;;;;;2.97;1.67;;;;;;;;;;5038440;28;20572;-81
2024/02/19 12:30:41;;;;;;;1.90;1.53;;;;;;;;;;5045391;28;20436;-82
2024/02/19 12:33:07;;;;;;;4.43;1.63;;;;;;;;;;5036235;28;20429;-82
2024/02/19 12:35:33;;;;;;;2.83;1.43;;;;;;;;;;5035856;28;20414;-82
2024/02/19 12:38:00;;;;;;;6.83;1.50;;;;;;;;;;5037157;28;20417;-81
2024/02/19 12:40:26;;;;;;;2.30;1.70;;;;;;;;;;5036951;28;20417;-81
2024/02/19 12:42:52;;;;;;;5.73;1.40;;;;;;;;;;5036062;28;20417;-77
2024/02/19 12:45:19;;;;;;;7.70;1.90;;;;;;;;;;5032448;28;20579;-78
2024/02/19 12:47:45;;;;;;;1.63;1.33;;;;;;;;;;5040254;28;20456;-79
2024/02/19 12:50:15;;;;;;;5.17;1.70;;;;;;;;;;5038917;28;20858;-77
2024/02/19 12:52:42;;;;;;;2.10;1.33;;;;;;;;;;5034529;28;20397;-79
2024/02/19 12:55:09;;;;;;;5.30;1.67;;;;;;;;;;5034884;28;20462;-77
2024/02/19 12:57:35;;;;;;;1.93;1.10;;;;;;;;;;5033418;28;20835;-78
2024/02/19 13:00:06;;;;;;;7.40;1.47;;;;;;;;;;5032143;28;20420;-77
2024/02/19 13:02:33;;;;;;;4.63;1.67;;;;;;;;;;5032525;28;20492;-77
2024/02/19 13:04:59;;;;;;;3.40;1.60;;;;;;;;;;5032028;28;20892;-78
2024/02/19 13:07:25;;;;;;;4.27;1.70;;;;;;;;;;5032397;28;20518;-77
2024/02/19 13:09:51;;;;;;;4.67;1.60;;;;;;;;;;5031999;28;20409;-78
2024/02/19 13:12:17;;;;;;;3.40;1.30;;;;;;;;;;5030998;28;20429;-78
2024/02/19 13:14:43;;;;;;;2.30;1.47;;;;;;;;;;5032175;28;20824;-79
2024/02/19 13:17:09;;;;;;;7.27;1.70;;;;;;;;;;5031851;28;20963;-78
2024/02/19 13:19:35;;;;;;;9.53;1.90;;;;;;;;;;5041623;28;20485;-84
2024/02/19 13:22:03;;;;;;;4.00;1.20;;;;;;;;;;5047948;28;20432;-80
2024/02/19 13:24:29;;;;;;;6.30;1.70;;;;;;;;;;5033018;28;20406;-79
2024/02/19 13:26:55;;;;;;;2.90;1.80;;;;;;;;;;5034883;28;20490;-80
2024/02/19 13:29:21;;;;;;;5.40;2.13;;;;;;;;;;5039428;28;20461;-77
2024/02/19 13:31:47;;;;;;;8.23;1.77;;;;;;;;;;5037849;28;20448;-76
2024/02/19 13:34:15;;;;;;;4.73;2.17;;;;;;;;;;5020716;28;20418;-74
2024/02/19 13:36:41;;;;;;;9.60;1.90;;;;;;;;;;5015981;28;20854;-76
2024/02/19 13:39:08;;;;;;;2.47;1.57;;;;;;;;;;5016345;28;20424;-76
2024/02/19 13:41:34;;;;;;;3.93;2.10;;;;;;;;;;5015976;28;20940;-75
2024/02/19 13:43:59;;;;;;;8.63;1.77;;;;;;;;;;5015838;28;20444;-74
2024/02/19 13:46:25;;;;;;;4.80;2.30;;;;;;;;;;5015511;28;20413;-73
2024/02/19 13:49:00;;;;;;;5.43;1.93;;;;;;;;;;5015366;28;20819;-74
2024/02/19 13:51:26;;;;;;;3.70;1.67;;;;;;;;;;5022994;28;20855;-73
2024/02/19 13:53:52;;;;;;;9.63;2.20;;;;;;;;;;5033978;28;20475;-73
2024/02/19 13:56:18;;;;;;;5.33;2.17;;;;;;;;;;5034909;28;20880;-73
2024/02/19 13:58:44;;;;;;;5.53;2.30;;;;;;;;;;5033911;28;20416;-73
2024/02/19 14:01:10;;;;;;;4.20;1.87;;;;;;;;;;5034979;28;20449;-73
2024/02/19 14:03:36;;;;;;;12.80;3.00;;;;;;;;;;5033554;28;20893;-74
2024/02/19 14:06:03;;;;;;;3.93;1.90;;;;;;;;;;5033717;28;20475;-74
2024/02/19 14:08:29;;;;;;;10.73;2.20;;;;;;;;;;5033106;28;20469;-74
2024/02/19 14:10:57;;;;;;;11.30;2.70;;;;;;;;;;5033246;28;20440;-75
2024/02/19 14:13:23;;;;;;;7.57;2.70;;;;;;;;;;5034955;28;20471;-74
2024/02/19 14:15:49;;;;;;;9.10;2.47;;;;;;;;;;5034950;28;20409;-74
2024/02/19 14:18:15;;;;;;;5.47;1.87;;;;;;;;;;5034626;28;20424;-75
2024/02/19 14:20:41;;;;;;;4.53;2.50;;;;;;;;;;5034842;28;20437;-74
2024/02/19 14:23:07;;;;;;;8.73;2.50;;;;;;;;;;5034531;28;20646;-74
2024/02/19 14:25:34;;;;;;;22.40;2.90;;;;;;;;;;5034921;28;20638;-73
2024/02/19 14:28:00;;;;;;;5.70;2.17;;;;;;;;;;5024888;28;20461;-73
2024/02/19 14:30:26;;;;;;;6.33;2.50;;;;;;;;;;5023175;28;20409;-73
2024/02/19 14:32:52;;;;;;;7.67;2.00;;;;;;;;;;5024132;28;20418;-73
2024/02/19 14:35:18;;;;;;;3.57;2.47;;;;;;;;;;5014554;28;20505;-74
2024/02/19 14:37:44;;;;;;;10.47;2.77;;;;;;;;;;5012401;28;20509;-73
2024/02/19 14:40:14;;;;;;;7.40;2.70;;;;;;;;;;5013210;28;20430;-73
2024/02/19 14:42:49;;;;;;;11.33;2.87;;;;;;;;;;5014421;28;20497;-73
2024/02/19 14:45:16;;;;;;;5.37;2.77;;;;;;;;;;5014009;28;20425;-73
2024/02/19 14:47:43;;;;;;;10.50;3.30;;;;;;;;;;5014059;28;20454;-73
2024/02/19 14:50:09;;;;;;;7.00;2.40;;;;;;;;;;5014768;28;20429;-74
2024/02/19 14:52:36;;;;;;;3.90;2.50;;;;;;;;;;5014406;28;20414;-74
2024/02/19 14:55:09;;;;;;;10.77;2.47;;;;;;;;;;5014544;28;20724;-75
2024/02/19 14:57:46;;;;;;;5.53;2.47;;;;;;;;;;5013908;28;20411;-74
2024/02/19 15:00:20;;;;;;;7.53;2.83;;;;;;;;;;5014416;28;20409;-75
2024/02/19 15:02:46;;;;;;;8.83;3.20;;;;;;;;;;5013981;28;20788;-74
2024/02/19 15:05:12;;;;;;;10.57;2.93;;;;;;;;;;5013124;28;20415;-77
2024/02/19 15:07:41;;;;;;;3.57;2.40;;;;;;;;;;5014024;28;20532;-78
2024/02/19 15:10:07;;;;;;;7.20;2.50;;;;;;;;;;5030341;28;20475;-78
2024/02/19 15:12:33;;;;;;;8.03;2.80;;;;;;;;;;5037375;28;20595;-78
2024/02/19 15:14:59;;;;;;;9.37;3.10;;;;;;;;;;5036871;28;20919;-77
2024/02/19 15:17:25;;;;;;;8.07;2.60;;;;;;;;;;5036179;28;20405;-78
2024/02/19 15:19:52;;;;;;;7.17;2.97;;;;;;;;;;5032182;28;20504;-78
2024/02/19 15:22:18;;;;;;;6.70;2.60;;;;;;;;;;5034923;28;20421;-78
2024/02/19 15:24:45;;;;;;;13.70;2.93;;;;;;;;;;5033155;28;20460;-77
2024/02/19 15:27:11;;;;;;;5.27;2.20;;;;;;;;;;5033962;28;20429;-77
2024/02/19 15:29:38;;;;;;;12.60;3.10;;;;;;;;;;5016105;28;20418;-75
2024/02/19 15:32:04;;;;;;;7.40;2.40;;;;;;;;;;5017992;28;20521;-75
2024/02/19 15:34:30;;;;;;;11.83;2.90;;;;;;;;;;5033977;28;20762;-78
2024/02/19 15:36:56;;;;;;;3.90;2.80;;;;;;;;;;5022498;28;20445;-80
2024/02/19 15:39:22;;;;;;;6.37;2.60;;;;;;;;;;5027106;28;20417;-78
2024/02/19 15:41:48;;;;;;;6.17;2.30;;;;;;;;;;5035260;28;20500;-79
2024/02/19 15:44:14;;;;;;;5.27;2.03;;;;;;;;;;5040389;28;20842;-78
2024/02/19 15:46:40;;;;;;;5.70;2.73;;;;;;;;;;5033358;28;20417;-79
2024/02/19 15:49:06;;;;;;;7.10;2.80;;;;;;;;;;5035445;28;20518;-78
2024/02/19 15:51:33;;;;;;;6.10;2.40;;;;;;;;;;5034406;28;20443;-78
2024/02/19 15:53:59;;;;;;;8.87;2.20;;;;;;;;;;5014529;28;20952;-77
2024/02/19 15:56:25;;;;;;;7.47;3.07;;;;;;;;;;5026289;28;20418;-81
2024/02/19 15:58:51;;;;;;;13.40;3.23;;;;;;;;;;5023802;28;20422;-78
2024/02/19 16:01:18;;;;;;;5.80;2.40;;;;;;;;;;5028015;28;20469;-79
2024/02/19 16:03:49;;;;;;;10.67;2.90;;;;;;;;;;5022203;28;20422;-79
2024/02/19 16:06:15;;;;;;;5.20;2.47;;;;;;;;;;5020717;28;20418;-78
2024/02/19 16:08:41;;;;;;;9.70;2.43;;;;;;;;;;5021054;28;21001;-79
2024/02/19 16:11:09;;;;;;;11.97;3.13;;;;;;;;;;5023380;28;21015;-79
2024/02/19 16:13:38;;;;;;;3.37;2.03;;;;;;;;;;5020650;28;20418;-79
2024/02/19 16:16:04;;;;;;;12.73;3.60;;;;;;;;;;5026032;28;20421;-79
2024/02/19 16:18:31;;;;;;;9.87;3.27;;;;;;;;;;5039077;28;20406;-79
2024/02/19 16:20:57;;;;;;;9.03;3.10;;;;;;;;;;5024651;28;20437;-77
2024/02/19 16:23:23;;;;;;;6.90;2.73;;;;;;;;;;5034164;28;20417;-78
2024/02/19 16:25:50;;;;;;;5.23;2.80;;;;;;;;;;5032575;28;20505;-78
2024/02/19 16:28:15;;;;;;;6.00;2.43;;;;;;;;;;5024027;28;20473;-78
2024/02/19 16:30:42;;;;;;;8.03;3.17;;;;;;;;;;5016227;28;20476;-80
2024/02/19 16:33:08;;;;;;;5.20;2.60;;;;;;;;;;5038438;28;20916;-80
2024/02/19 16:35:34;;;;;;;9.40;3.03;;;;;;;;;;5038605;28;20417;-80
2024/02/19 16:38:00;;;;;;;6.93;2.93;;;;;;;;;;5023521;28;20821;-80
2024/02/19 16:40:26;;;;;;;12.90;2.83;;;;;;;;;;5038503;28;20425;-80
2024/02/19 16:42:52;;;;;;;5.10;2.30;;;;;;;;;;5039957;28;20483;-80
2024/02/19 16:45:18;;;;;;;5.00;2.93;;;;;;;;;;5040535;28;20983;-81
2024/02/19 16:47:45;;;;;;;7.90;3.00;;;;;;;;;;5040451;28;20541;-82
2024/02/19 16:50:10;;;;;;;5.83;2.40;;;;;;;;;;5046537;28;20467;-80
2024/02/19 16:52:36;;;;;;;4.90;3.07;;;;;;;;;;5044871;28;20847;-80
2024/02/19 16:55:06;;;;;;;10.57;4.23;;;;;;;;;;5038233;28;20413;-80
2024/02/19 16:57:32;;;;;;;6.50;3.30;;;;;;;;;;5036081;28;20425;-80
2024/02/19 16:59:58;;;;;;;6.17;2.50;;;;;;;;;;5028575;28;20426;-80
2024/02/19 17:02:24;;;;;;;9.23;3.53;;;;;;;;;;5037252;28;20515;-81
2024/02/19 17:04:51;;;;;;;6.40;2.63;;;;;;;;;;5028785;28;20426;-80
2024/02/19 17:07:18;;;;;;;10.03;2.93;;;;;;;;;;5027383;28;20788;-81
2024/02/19 17:09:44;;;;;;;7.43;3.10;;;;;;;;;;5035919;28;20479;-80
2024/02/19 17:12:10;;;;;;;10.27;3.10;;;;;;;;;;5027869;28;21015;-80
2024/02/19 17:14:41;;;;;;;4.93;3.00;;;;;;;;;;5036917;28;20413;-80
2024/02/19 17:17:07;;;;;;;12.03;3.10;;;;;;;;;;5036417;28;20456;-80
2024/02/19 17:19:33;;;;;;;13.27;2.90;;;;;;;;;;5034803;28;20456;-81
2024/02/19 17:21:59;;;;;;;7.70;2.93;;;;;;;;;;5034554;28;20449;-80
2024/02/19 17:24:27;;;;;;;6.93;4.10;;;;;;;;;;5033340;28;20480;-80
2024/02/19 17:26:53;;;;;;;9.03;4.10;;;;;;;;;;5030684;28;20985;-79
2024/02/19 17:29:19;;;;;;;8.50;4.00;;;;;;;;;;5042133;28;20461;-83
2024/02/19 17:31:45;;;;;;;9.53;3.70;;;;;;;;;;5051427;28;20445;-85
2024/02/19 17:34:11;;;;;;;8.63;3.90;;;;;;;;;;5043063;28;20839;-82
2024/02/19 17:36:38;;;;;;;9.07;3.40;;;;;;;;;;5049446;28;20395;-84
2024/02/19 17:39:07;;;;;;;8.10;3.70;;;;;;;;;;5038040;28;20796;-82
2024/02/19 17:41:33;;;;;;;6.43;3.00;;;;;;;;;;5036476;28;20457;-82
2024/02/19 17:43:59;;;;;;;5.87;3.33;;;;;;;;;;5036254;28;20424;-83
2024/02/19 17:46:25;;;;;;;3.40;3.20;;;;;;;;;;5036413;28;20415;-82
2024/02/19 17:48:51;;;;;;;6.13;3.10;;;;;;;;;;5037271;28;21036;-82
2024/02/19 17:51:21;;;;;;;8.63;3.87;;;;;;;;;;5035358;28;20433;-81
2024/02/19 17:53:47;;;;;;;8.23;3.60;;;;;;;;;;5035286;28;20975;-82
2024/02/19 17:56:13;;;;;;;6.37;3.93;;;;;;;;;;5026652;28;20427;-82
2024/02/19 17:58:40;;;;;;;5.20;3.30;;;;;;;;;;5035912;28;20436;-82
2024/02/19 18:01:06;;;;;;;9.63;4.93;;;;;;;;;;5037850;28;20470;-82
2024/02/19 18:03:32;;;;;;;6.97;4.03;;;;;;;;;;5030552;28;20430;-79
2024/02/19 18:06:02;;;;;;;6.53;3.30;;;;;;;;;;5020760;28;20406;-82
2024/02/19 18:08:28;;;;;;;12.77;3.90;;;;;;;;;;5028037;28;20538;-80
2024/02/19 18:10:54;;;;;;;8.37;3.77;;;;;;;;;;5040998;28;20446;-80
2024/02/19 18:13:20;;;;;;;8.20;3.80;;;;;;;;;;5037758;28;20428;-80
2024/02/19 18:15:46;;;;;;;7.33;3.27;;;;;;;;;;5036440;28;20425;-80
2024/02/19 18:18:12;;;;;;;13.23;4.60;;;;;;;;;;5039301;28;20963;-81
2024/02/19 18:20:38;;;;;;;10.77;4.20;;;;;;;;;;5037849;28;20534;-80
2024/02/19 18:23:09;;;;;;;8.23;3.93;;;;;;;;;;5040310;28;20417;-80
2024/02/19 18:25:35;;;;;;;9.63;4.67;;;;;;;;;;5040250;28;20397;-81
2024/02/19 18:28:01;;;;;;;10.90;4.30;;;;;;;;;;5045020;28;20449;-80
2024/02/19 18:30:27;;;;;;;17.83;5.10;;;;;;;;;;5045351;28;20397;-80
2024/02/19 18:32:57;;;;;;;8.93;3.83;;;;;;;;;;5028179;28;20444;-80
2024/02/19 18:35:23;;;;;;;13.50;5.07;;;;;;;;;;5029871;28;20418;-80
2024/02/19 18:37:49;;;;;;;13.23;3.77;;;;;;;;;;5036518;28;20497;-80
2024/02/19 18:40:15;;;;;;;8.50;3.60;;;;;;;;;;5035377;28;20422;-80
2024/02/19 18:42:43;;;;;;;10.67;4.10;;;;;;;;;;5036477;28;20402;-80
2024/02/19 18:45:09;;;;;;;8.33;3.70;;;;;;;;;;5022453;28;20755;-79
2024/02/19 18:47:37;;;;;;;11.87;5.13;;;;;;;;;;5020871;28;20987;-79
2024/02/19 18:50:03;;;;;;;9.33;4.30;;;;;;;;;;5019330;28;20437;-78
2024/02/19 18:52:31;;;;;;;9.50;3.47;;;;;;;;;;5021572;28;20450;-79
2024/02/19 18:54:57;;;;;;;10.40;3.77;;;;;;;;;;5021939;28;20406;-73
2024/02/19 18:57:23;;;;;;;9.97;3.47;;;;;;;;;;5016894;28;20495;-74
2024/02/19 18:59:49;;;;;;;7.33;4.43;;;;;;;;;;5032027;28;20433;-77
2024/02/19 19:02:15;;;;;;;6.47;3.07;;;;;;;;;;5033710;28;20453;-77
2024/02/19 19:04:43;;;;;;;4.80;3.10;;;;;;;;;;5027463;28;20500;-77
2024/02/19 19:07:09;;;;;;;7.10;3.50;;;;;;;;;;5026214;28;20448;-77
2024/02/19 19:09:41;;;;;;;4.50;3.20;;;;;;;;;;5031010;28;20490;-77
2024/02/19 19:12:11;;;;;;;6.40;2.87;;;;;;;;;;5026491;28;20526;-77
2024/02/19 19:14:37;;;;;;;6.47;3.23;;;;;;;;;;5022816;28;20410;-77
2024/02/19 19:17:04;;;;;;;6.10;3.80;;;;;;;;;;5030492;28;20474;-78
2024/02/19 19:19:30;;;;;;;11.00;3.60;;;;;;;;;;5034455;28;20492;-76
2024/02/19 19:21:56;;;;;;;13.70;3.37;;;;;;;;;;5037550;28;20425;-77
2024/02/19 19:24:22;;;;;;;8.53;3.77;;;;;;;;;;5035721;28;20421;-77
2024/02/19 19:26:48;;;;;;;9.20;3.30;;;;;;;;;;5043228;28;20757;-77
2024/02/19 19:29:14;;;;;;;17.70;3.30;;;;;;;;;;5023712;28;20552;-77
2024/02/19 19:31:40;;;;;;;10.50;3.17;;;;;;;;;;5031501;28;20460;-77
2024/02/19 19:34:08;;;;;;;7.10;2.90;;;;;;;;;;5041362;28;20421;-76
2024/02/19 19:36:34;;;;;;;6.63;2.80;;;;;;;;;;5040114;28;20413;-77
2024/02/19 19:39:00;;;;;;;7.03;2.93;;;;;;;;;;5037958;28;20454;-76
2024/02/19 19:41:26;;;;;;;6.30;3.10;;;;;;;;;;5042131;28;20536;-77
2024/02/19 19:43:52;;;;;;;8.53;3.50;;;;;;;;;;5013199;28;20433;-77
2024/02/19 19:46:18;;;;;;;6.10;3.40;;;;;;;;;;5016370;28;20414;-77
2024/02/19 19:48:45;;;;;;;5.70;3.60;;;;;;;;;;5034197;28;20556;-77
2024/02/19 19:51:11;;;;;;;7.20;3.17;;;;;;;;;;5025491;28;20491;-76
2024/02/19 19:53:37;;;;;;;4.83;3.10;;;;;;;;;;5032534;28;20468;-77
2024/02/19 19:56:04;;;;;;;9.60;3.87;;;;;;;;;;5032309;28;20425;-77
2024/02/19 19:58:30;;;;;;;7.43;3.43;;;;;;;;;;5032647;28;20432;-77
2024/02/19 20:00:55;;;;;;;6.53;3.53;;;;;;;;;;5034196;28;20456;-77
2024/02/19 20:03:21;;;;;;;10.97;6.10;;;;;;;;;;5034608;28;20493;-78
2024/02/19 20:05:48;;;;;;;7.50;4.23;;;;;;;;;;5034390;28;20424;-77
2024/02/19 20:08:14;;;;;;;8.23;3.70;;;;;;;;;;5034136;28;20475;-78
2024/02/19 20:10:40;;;;;;;14.43;3.43;;;;;;;;;;5038744;28;20535;-78
2024/02/19 20:13:06;;;;;;;14.23;4.03;;;;;;;;;;5040906;28;20413;-80
2024/02/19 20:15:33;;;;;;;6.00;3.50;;;;;;;;;;5039308;28;20421;-78
2024/02/19 20:17:59;;;;;;;7.83;4.40;;;;;;;;;;5042874;28;20422;-77
2024/02/19 20:20:28;;;;;;;6.83;4.30;;;;;;;;;;5036845;28;20429;-76
2024/02/19 20:22:54;;;;;;;10.63;4.80;;;;;;;;;;5021272;28;20850;-77
2024/02/19 20:25:21;;;;;;;6.97;4.17;;;;;;;;;;5026327;28;20529;-77
2024/02/19 20:27:48;;;;;;;6.50;3.23;;;;;;;;;;5041710;28;20493;-78
2024/02/19 20:30:14;;;;;;;7.30;3.87;;;;;;;;;;5036939;28;20417;-77
2024/02/19 20:32:40;;;;;;;8.93;4.00;;;;;;;;;;5036531;28;20412;-76
2024/02/19 20:35:06;;;;;;;4.60;3.20;;;;;;;;;;5021907;28;20843;-79
2024/02/19 20:37:32;;;;;;;12.10;3.87;;;;;;;;;;5041579;28;20472;-79